createdAt,value
2022-11-27T00:01:33.752Z,98.95
2022-11-27T00:04:01.882Z,99.55
2022-11-27T00:06:31.087Z,99.33
2022-11-27T00:09:00.743Z,99.23
2022-11-27T00:11:30.615Z,98.87
2022-11-27T00:13:58.860Z,99.41
2022-11-27T00:16:28.466Z,98.68
2022-11-27T00:18:56.451Z,98.73
2022-11-27T00:21:30.515Z,98.75
2022-11-27T00:24:00.521Z,98.35
2022-11-27T00:26:34.432Z,98.68
2022-11-27T00:29:05.470Z,98.89
2022-11-27T00:31:34.743Z,98.44
2022-11-27T00:34:04.893Z,98.11
2022-11-27T00:36:34.568Z,98.99
2022-11-27T00:39:02.787Z,98.14
2022-11-27T00:41:31.536Z,98.35
2022-11-27T00:43:59.687Z,98.15
2022-11-27T00:46:30.473Z,98.40
2022-11-27T00:49:00.180Z,98.43
2022-11-27T00:51:28.558Z,98.83
2022-11-27T00:53:57.076Z,99.55
2022-11-27T00:56:30.637Z,98.87
2022-11-27T00:58:59.020Z,98.90
2022-11-27T01:01:30.281Z,99.20
2022-11-27T01:04:00.214Z,99.66
2022-11-27T01:06:29.114Z,99.57
2022-11-27T01:08:56.938Z,99.00
2022-11-27T01:11:27.160Z,98.84
2022-11-27T01:13:57.866Z,99.02
2022-11-27T01:16:27.954Z,99.22
2022-11-27T01:18:58.714Z,99.00
2022-11-27T01:21:28.073Z,99.79
2022-11-27T01:23:56.392Z,99.06
2022-11-27T01:26:24.080Z,99.50
2022-11-27T01:28:56.602Z,98.69
2022-11-27T01:31:27.794Z,99.19
2022-11-27T01:33:57.805Z,98.89
2022-11-27T01:36:26.430Z,98.77
2022-11-27T01:38:55.021Z,98.92
2022-11-27T01:41:28.963Z,99.06
2022-11-27T01:43:59.582Z,98.56
2022-11-27T01:46:42.881Z,98.11
2022-11-27T01:49:10.562Z,98.33
2022-11-27T01:52:10.485Z,98.75
2022-11-27T01:54:38.328Z,98.66
2022-11-27T01:57:14.653Z,99.29
2022-11-27T01:59:42.792Z,98.25
2022-11-27T02:02:10.576Z,98.28
2022-11-27T02:04:38.658Z,99.32
2022-11-27T02:07:06.624Z,98.55
2022-11-27T02:09:34.895Z,98.31
2022-11-27T02:12:26.014Z,98.36
2022-11-27T02:15:15.236Z,98.07
2022-11-27T02:18:07.775Z,98.56
2022-11-27T02:20:57.248Z,98.50
2022-11-27T02:24:14.022Z,98.44
2022-11-27T02:26:59.529Z,98.70
2022-11-27T02:29:33.032Z,98.63
2022-11-27T02:32:16.854Z,98.46
2022-11-27T02:34:54.203Z,98.56
2022-11-27T02:37:43.119Z,98.88
2022-11-27T02:40:13.281Z,98.51
2022-11-27T02:42:56.219Z,98.65
2022-11-27T02:45:31.167Z,98.54
2022-11-27T02:47:59.540Z,98.20
2022-11-27T02:50:30.227Z,97.94
2022-11-27T02:53:02.865Z,97.87
2022-11-27T02:55:36.110Z,97.52
2022-11-27T02:58:09.844Z,97.53
2022-11-27T03:00:39.686Z,97.04
2022-11-27T03:03:11.264Z,97.29
2022-11-27T03:05:43.297Z,97.20
2022-11-27T03:08:29.792Z,96.88
2022-11-27T03:11:13.461Z,97.22
2022-11-27T03:13:45.800Z,96.98
2022-11-27T03:16:22.409Z,96.56
2022-11-27T03:18:59.111Z,96.39
2022-11-27T03:21:33.655Z,95.64
2022-11-27T03:24:01.971Z,95.71
2022-11-27T03:26:29.683Z,95.41
2022-11-27T03:29:00.004Z,95.61
2022-11-27T03:31:27.947Z,96.29
2022-11-27T03:33:55.987Z,96.21
2022-11-27T03:36:24.042Z,96.19
2022-11-27T03:38:55.148Z,96.33
2022-11-27T03:41:28.091Z,96.65
2022-11-27T03:44:14.230Z,96.61
2022-11-27T03:47:15.343Z,96.65
2022-11-27T03:50:06.623Z,96.94
2022-11-27T03:53:16.018Z,97.35
2022-11-27T03:55:51.908Z,97.05
2022-11-27T03:58:34.085Z,96.94
2022-11-27T04:01:04.406Z,96.79
2022-11-27T04:03:32.777Z,97.12
2022-11-27T04:06:00.563Z,96.60
2022-11-27T04:08:28.209Z,96.58
2022-11-27T04:10:55.949Z,96.59
2022-11-27T04:13:23.887Z,96.20
2022-11-27T04:15:51.546Z,95.82
2022-11-27T04:18:19.281Z,95.78
2022-11-27T04:20:46.953Z,95.70
2022-11-27T04:23:14.569Z,95.99
2022-11-27T04:25:42.318Z,95.91
2022-11-27T04:28:09.955Z,95.93
2022-11-27T04:30:37.753Z,95.57
2022-11-27T04:33:05.666Z,95.07
2022-11-27T04:35:33.381Z,94.73
2022-11-27T04:38:01.033Z,94.86
2022-11-27T04:40:28.880Z,94.25
2022-11-27T04:42:56.517Z,93.69
2022-11-27T04:45:24.202Z,94.45
2022-11-27T04:47:51.891Z,94.42
2022-11-27T04:50:19.738Z,93.92
2022-11-27T04:52:47.452Z,94.11
2022-11-27T04:55:15.137Z,93.50
2022-11-27T04:57:42.867Z,93.77
2022-11-27T05:00:11.095Z,93.77
2022-11-27T05:02:38.904Z,93.20
2022-11-27T05:05:06.897Z,93.87
2022-11-27T05:07:34.577Z,93.33
2022-11-27T05:10:02.318Z,92.67
2022-11-27T05:12:30.049Z,92.97
2022-11-27T05:15:00.698Z,93.24
2022-11-27T05:17:31.714Z,93.51
2022-11-27T05:19:59.361Z,93.31
2022-11-27T05:22:26.973Z,93.26
2022-11-27T05:24:54.672Z,93.44
2022-11-27T05:27:22.445Z,93.30
2022-11-27T05:29:50.036Z,92.86
2022-11-27T05:32:17.776Z,92.61
2022-11-27T05:34:45.463Z,92.24
2022-11-27T05:37:19.274Z,92.10
2022-11-27T05:39:47.529Z,91.94
2022-11-27T05:42:15.303Z,92.05
2022-11-27T05:44:43.207Z,91.95
2022-11-27T05:47:11.117Z,92.21
2022-11-27T05:49:39.639Z,92.46
2022-11-27T05:52:07.340Z,92.42
2022-11-27T05:54:34.941Z,92.21
2022-11-27T05:57:02.584Z,92.22
2022-11-27T05:59:30.171Z,91.96
2022-11-27T06:01:57.898Z,92.13
2022-11-27T06:04:25.833Z,92.58
2022-11-27T06:06:53.501Z,92.60
2022-11-27T06:09:21.204Z,92.40
2022-11-27T06:11:48.808Z,92.33
2022-11-27T06:14:16.466Z,92.23
2022-11-27T06:16:44.312Z,92.04
2022-11-27T06:19:12.048Z,92.10
2022-11-27T06:21:39.775Z,92.34
2022-11-27T06:24:07.776Z,91.99
2022-11-27T06:26:35.696Z,92.36
2022-11-27T06:29:03.828Z,92.25
2022-11-27T06:31:33.506Z,92.13
2022-11-27T06:34:02.167Z,92.25
2022-11-27T06:36:35.637Z,91.84
2022-11-27T06:39:05.391Z,91.97
2022-11-27T06:41:33.397Z,91.96
2022-11-27T06:44:02.479Z,91.93
2022-11-27T06:46:31.184Z,92.12
2022-11-27T06:48:59.426Z,91.86
2022-11-27T06:51:29.258Z,91.93
2022-11-27T06:53:57.952Z,91.63
2022-11-27T06:56:28.080Z,91.39
2022-11-27T06:58:58.040Z,91.56
2022-11-27T07:01:27.759Z,90.90
2022-11-27T07:03:55.570Z,90.74
2022-11-27T07:06:26.627Z,91.14
2022-11-27T07:08:55.251Z,91.48
2022-11-27T07:11:26.192Z,91.71
2022-11-27T07:13:57.143Z,91.51
2022-11-27T07:16:25.637Z,90.78
2022-11-27T07:18:56.540Z,91.35
2022-11-27T07:21:24.950Z,91.03
2022-11-27T07:23:53.173Z,90.99
2022-11-27T07:26:26.297Z,90.95
2022-11-27T07:28:54.611Z,91.02
2022-11-27T07:31:25.050Z,91.00
2022-11-27T07:33:55.874Z,91.04
2022-11-27T07:36:26.137Z,91.06
2022-11-27T07:38:53.888Z,91.32
2022-11-27T07:41:21.726Z,90.93
2022-11-27T07:43:49.555Z,91.20
2022-11-27T07:46:20.894Z,91.02
2022-11-27T07:48:49.028Z,90.96
2022-11-27T07:51:19.281Z,90.90
2022-11-27T07:53:46.962Z,90.86
2022-11-27T07:56:16.363Z,90.83
2022-11-27T07:58:44.312Z,90.78
2022-11-27T08:01:15.163Z,90.57
2022-11-27T08:03:46.486Z,90.47
2022-11-27T08:06:23.154Z,90.23
2022-11-27T08:08:51.619Z,90.26
2022-11-27T08:11:22.572Z,90.33
2022-11-27T08:13:51.472Z,90.06
2022-11-27T08:16:19.314Z,90.29
2022-11-27T08:18:47.044Z,90.22
2022-11-27T08:21:14.812Z,90.08
2022-11-27T08:23:42.493Z,89.78
2022-11-27T08:26:11.291Z,89.76
2022-11-27T08:28:39.746Z,89.48
2022-11-27T08:31:09.902Z,89.58
2022-11-27T08:33:38.235Z,89.58
2022-11-27T08:36:09.016Z,89.59
2022-11-27T08:38:38.378Z,89.60
2022-11-27T08:41:08.113Z,89.51
2022-11-27T08:43:36.336Z,89.18
2022-11-27T08:46:08.379Z,89.09
2022-11-27T08:48:36.336Z,88.71
2022-11-27T08:51:09.923Z,88.93
2022-11-27T08:53:38.695Z,88.77
2022-11-27T08:56:12.591Z,88.38
2022-11-27T08:58:42.103Z,88.43
2022-11-27T09:01:12.651Z,88.55
2022-11-27T09:03:40.723Z,88.23
2022-11-27T09:06:13.664Z,88.23
2022-11-27T09:08:42.889Z,88.21
2022-11-27T09:11:12.163Z,88.35
2022-11-27T09:13:41.296Z,88.27
2022-11-27T09:16:12.280Z,88.12
2022-11-27T09:18:40.655Z,88.05
2022-11-27T09:21:11.754Z,88.06
2022-11-27T09:23:40.639Z,87.84
2022-11-27T09:26:11.914Z,87.84
2022-11-27T09:28:40.723Z,87.68
2022-11-27T09:31:10.917Z,87.70
2022-11-27T09:33:41.301Z,87.44
2022-11-27T09:36:36.713Z,87.42
2022-11-27T09:39:04.980Z,87.22
2022-11-27T09:41:50.338Z,87.19
2022-11-27T09:44:47.721Z,87.13
2022-11-27T09:47:18.436Z,87.14
2022-11-27T09:50:00.246Z,87.34
2022-11-27T09:52:52.131Z,87.12
2022-11-27T09:55:26.647Z,87.21
2022-11-27T09:58:03.008Z,87.06
2022-11-27T10:00:30.761Z,85.32
2022-11-27T10:02:58.648Z,86.22
2022-11-27T10:05:49.126Z,85.91
2022-11-27T10:08:27.762Z,85.37
2022-11-27T10:10:58.482Z,83.32
2022-11-27T10:13:32.258Z,84.89
2022-11-27T10:16:27.283Z,84.74
2022-11-27T10:19:08.537Z,84.54
2022-11-27T10:21:58.175Z,84.83
2022-11-27T10:24:46.530Z,84.26
2022-11-27T10:27:32.184Z,84.13
2022-11-27T10:30:02.676Z,83.92
2022-11-27T10:35:26.184Z,83.45
2022-11-27T10:38:07.221Z,83.38
2022-11-27T10:40:46.787Z,82.69
2022-11-27T10:43:19.867Z,81.98
2022-11-27T10:45:55.122Z,82.43
2022-11-27T10:48:23.432Z,82.12
2022-11-27T10:50:51.890Z,82.22
2022-11-27T10:53:33.405Z,81.99
2022-11-27T10:56:13.149Z,81.60
2022-11-27T10:58:46.483Z,81.52
2022-11-27T11:01:17.028Z,81.62
2022-11-27T11:03:44.850Z,81.09
2022-11-27T11:06:22.205Z,81.49
2022-11-27T11:09:04.129Z,80.92
2022-11-27T11:11:31.872Z,80.22
2022-11-27T11:13:59.798Z,80.93
2022-11-27T11:16:35.274Z,80.03
2022-11-27T11:19:04.060Z,80.46
2022-11-27T11:21:43.376Z,80.55
2022-11-27T11:24:13.952Z,79.09
2022-11-27T11:26:50.279Z,79.43
2022-11-27T11:29:37.375Z,78.86
2022-11-27T11:32:12.139Z,78.40
2022-11-27T11:35:01.717Z,79.28
2022-11-27T11:37:35.493Z,78.88
2022-11-27T11:40:14.814Z,79.27
2022-11-27T11:43:00.158Z,79.59
2022-11-27T11:45:32.900Z,79.69
2022-11-27T11:48:03.593Z,79.95
2022-11-27T11:50:49.280Z,80.07
2022-11-27T11:53:37.090Z,80.14
2022-11-27T11:56:32.749Z,80.09
2022-11-27T11:59:19.112Z,80.18
2022-11-27T12:02:13.747Z,80.19
2022-11-27T12:04:50.452Z,80.50
2022-11-27T12:07:20.983Z,80.57
2022-11-27T12:10:16.890Z,80.55
2022-11-27T12:12:56.677Z,80.49
2022-11-27T12:15:39.949Z,80.38
2022-11-27T12:18:27.962Z,80.76
2022-11-27T12:21:16.347Z,80.51
2022-11-27T12:24:11.312Z,80.44
2022-11-27T12:26:55.967Z,80.50
2022-11-27T12:29:26.652Z,80.73
2022-11-27T12:32:29.697Z,80.83
2022-11-27T12:35:04.177Z,80.82
2022-11-27T12:37:56.648Z,80.70
2022-11-27T12:40:52.456Z,80.59
2022-11-27T12:43:41.721Z,80.37
2022-11-27T12:46:33.008Z,80.98
2022-11-27T12:49:11.557Z,81.01
2022-11-27T12:51:47.292Z,81.16
2022-11-27T12:54:21.751Z,81.30
2022-11-27T12:56:56.068Z,81.31
2022-11-27T12:59:40.098Z,81.47
2022-11-27T13:02:10.465Z,81.53
2022-11-27T13:04:51.015Z,81.49
2022-11-27T13:07:32.104Z,81.52
2022-11-27T13:10:22.750Z,81.35
2022-11-27T13:13:23.326Z,81.63
2022-11-27T13:15:59.406Z,81.46
2022-11-27T13:18:45.097Z,81.39
2022-11-27T13:21:21.526Z,81.57
2022-11-27T13:23:49.420Z,81.42
2022-11-27T13:26:55.440Z,81.53
2022-11-27T13:29:32.346Z,81.63
2022-11-27T13:32:07.438Z,81.71
2022-11-27T13:34:46.501Z,81.64
2022-11-27T13:37:30.461Z,81.96
2022-11-27T13:40:20.079Z,81.82
2022-11-27T13:42:54.390Z,81.78
2022-11-27T13:45:27.625Z,81.80
2022-11-27T13:47:57.345Z,81.81
2022-11-27T13:50:31.042Z,81.90
2022-11-27T13:53:05.324Z,82.03
2022-11-27T13:55:39.228Z,82.10
2022-11-27T13:58:08.112Z,82.13
2022-11-27T14:00:46.854Z,82.28
2022-11-27T14:03:26.707Z,82.25
2022-11-27T14:05:54.591Z,82.15
2022-11-27T14:08:27.671Z,82.20
2022-11-27T14:11:09.712Z,82.20
2022-11-27T14:13:47.581Z,82.16
2022-11-27T14:16:30.395Z,82.27
2022-11-27T14:19:02.140Z,82.52
2022-11-27T14:21:43.722Z,82.29
2022-11-27T14:24:44.901Z,82.46
2022-11-27T14:27:24.704Z,82.45
2022-11-27T14:29:53.160Z,82.62
2022-11-27T14:32:22.136Z,82.54
2022-11-27T14:34:51.341Z,82.58
2022-11-27T14:37:28.220Z,82.63
2022-11-27T14:39:56.760Z,82.49
2022-11-27T14:42:32.050Z,82.60
2022-11-27T14:45:23.447Z,82.44
2022-11-27T14:47:54.625Z,82.37
2022-11-27T14:50:23.844Z,82.27
2022-11-27T14:52:57.459Z,82.43
2022-11-27T14:55:28.936Z,82.24
2022-11-27T14:58:02.503Z,82.12
2022-11-27T15:00:31.172Z,82.22
2022-11-27T15:03:11.987Z,82.24
2022-11-27T15:05:40.752Z,82.02
2022-11-27T15:08:11.076Z,82.16
2022-11-27T15:10:41.601Z,82.15
2022-11-27T15:13:22.651Z,82.16
2022-11-27T15:15:58.614Z,82.24
2022-11-27T15:18:29.640Z,82.07
2022-11-27T15:20:59.753Z,82.24
2022-11-27T15:23:32.752Z,82.15
2022-11-27T15:26:00.315Z,82.17
2022-11-27T15:28:29.637Z,82.19
2022-11-27T15:30:58.057Z,82.15
2022-11-27T15:33:32.136Z,81.99
2022-11-27T15:36:21.671Z,82.07
2022-11-27T15:38:52.187Z,82.02
2022-11-27T15:41:28.711Z,82.28
2022-11-27T15:43:57.460Z,82.22
2022-11-27T15:46:33.960Z,82.27
2022-11-27T15:49:01.805Z,82.17
2022-11-27T15:51:30.251Z,82.31
2022-11-27T15:53:57.952Z,82.30
2022-11-27T15:56:25.571Z,82.26
2022-11-27T15:58:53.306Z,82.31
2022-11-27T16:01:21.205Z,82.19
2022-11-27T16:03:49.037Z,82.44
2022-11-27T16:06:16.960Z,82.48
2022-11-27T16:08:44.641Z,82.59
2022-11-27T16:11:20.485Z,82.71
2022-11-27T16:13:48.236Z,82.67
2022-11-27T16:16:16.099Z,82.59
2022-11-27T16:18:44.143Z,82.85
2022-11-27T16:21:14.227Z,82.77
2022-11-27T16:23:42.371Z,82.61
2022-11-27T16:26:13.013Z,82.93
2022-11-27T16:28:40.757Z,82.95
2022-11-27T16:31:12.079Z,83.00
2022-11-27T16:33:40.260Z,82.92
2022-11-27T16:36:10.402Z,82.20
2022-11-27T16:38:38.520Z,82.74
2022-11-27T16:41:09.091Z,82.69
2022-11-27T16:43:40.052Z,82.80
2022-11-27T16:46:19.100Z,82.88
2022-11-27T16:48:48.582Z,83.03
2022-11-27T16:51:22.753Z,82.81
2022-11-27T16:53:53.012Z,82.56
2022-11-27T16:56:25.009Z,82.75
2022-11-27T16:58:54.058Z,82.87
2022-11-27T17:01:27.364Z,82.88
2022-11-27T17:03:55.166Z,82.86
2022-11-27T17:06:26.878Z,83.01
2022-11-27T17:08:55.808Z,82.96
2022-11-27T17:11:26.694Z,83.22
2022-11-27T17:13:57.569Z,83.20
2022-11-27T17:16:25.929Z,83.20
2022-11-27T17:18:53.674Z,83.27
2022-11-27T17:21:28.443Z,83.35
2022-11-27T17:23:59.913Z,83.49
2022-11-27T17:26:29.801Z,83.48
2022-11-27T17:28:57.871Z,83.61
2022-11-27T17:31:33.691Z,83.83
2022-11-27T17:34:01.709Z,83.88
2022-11-27T17:36:35.237Z,84.02
2022-11-27T17:39:06.491Z,84.07
2022-11-27T17:41:35.052Z,84.13
2022-11-27T17:44:05.762Z,84.28
2022-11-27T17:46:34.629Z,84.57
2022-11-27T17:49:04.188Z,84.67
2022-11-27T17:51:33.811Z,84.49
2022-11-27T17:54:03.414Z,84.89
2022-11-27T17:56:31.203Z,84.86
2022-11-27T17:59:00.914Z,84.74
2022-11-27T18:01:30.320Z,84.65
2022-11-27T18:04:01.493Z,84.78
2022-11-27T18:06:29.602Z,84.67
2022-11-27T18:08:58.513Z,84.58
2022-11-27T18:11:29.179Z,84.46
2022-11-27T18:13:57.039Z,84.59
2022-11-27T18:16:30.094Z,84.66
2022-11-27T18:18:59.813Z,84.46
2022-11-27T18:21:29.585Z,84.39
2022-11-27T18:24:22.490Z,84.31
2022-11-27T18:27:07.369Z,84.20
2022-11-27T18:29:33.259Z,84.12
2022-11-27T18:32:01.145Z,84.41
2022-11-27T18:34:28.891Z,84.33
2022-11-27T18:36:58.377Z,84.43
2022-11-27T18:39:26.674Z,84.61
2022-11-27T18:41:54.554Z,84.63
2022-11-27T18:44:22.203Z,84.72
2022-11-27T18:46:50.084Z,84.74
2022-11-27T18:49:17.937Z,85.08
2022-11-27T18:51:46.171Z,84.88
2022-11-27T18:54:13.916Z,85.14
2022-11-27T18:56:41.602Z,85.31
2022-11-27T18:59:09.487Z,85.26
2022-11-27T19:01:42.544Z,85.34
2022-11-27T19:04:11.978Z,85.34
2022-11-27T19:06:40.876Z,85.27
2022-11-27T19:09:09.335Z,85.51
2022-11-27T19:11:37.110Z,85.33
2022-11-27T19:14:05.623Z,85.22
2022-11-27T19:16:43.062Z,85.29
2022-11-27T19:19:49.295Z,85.18
2022-11-27T19:21:58.913Z,85.24
2022-11-27T19:24:26.667Z,85.16
2022-11-27T19:26:54.877Z,85.12
2022-11-27T19:29:22.600Z,85.11
2022-11-27T19:31:50.625Z,85.18
2022-11-27T19:34:18.355Z,85.15
2022-11-27T19:36:46.096Z,85.40
2022-11-27T19:39:15.566Z,85.17
2022-11-27T19:41:44.439Z,85.30
2022-11-27T19:44:13.998Z,85.15
2022-11-27T19:46:42.284Z,85.16
2022-11-27T19:49:17.876Z,84.93
2022-11-27T19:51:46.364Z,84.73
2022-11-27T19:54:15.739Z,84.69
2022-11-27T19:56:43.890Z,84.53
2022-11-27T19:59:13.326Z,84.42
2022-11-27T20:01:41.466Z,84.29
2022-11-27T20:04:12.031Z,84.12
2022-11-27T20:06:40.547Z,83.98
2022-11-27T20:09:08.302Z,83.87
2022-11-27T20:11:39.285Z,83.79
2022-11-27T20:14:07.682Z,83.68
2022-11-27T20:16:37.155Z,83.64
2022-11-27T20:19:06.569Z,83.70
2022-11-27T20:21:34.393Z,83.74
2022-11-27T20:24:02.851Z,83.35
2022-11-27T20:26:31.629Z,82.98
2022-11-27T20:28:59.921Z,83.03
2022-11-27T20:31:33.748Z,83.16
2022-11-27T20:34:04.403Z,83.55
2022-11-27T20:36:33.912Z,83.65
2022-11-27T20:39:02.396Z,83.85
2022-11-27T20:41:30.527Z,83.97
2022-11-27T20:44:01.600Z,84.20
2022-11-27T20:46:29.867Z,84.37
2022-11-27T20:48:58.006Z,84.53
2022-11-27T20:51:29.756Z,84.65
2022-11-27T20:54:02.387Z,84.64
2022-11-27T20:56:31.055Z,84.84
2022-11-27T20:58:59.832Z,84.68
2022-11-27T21:01:34.285Z,84.60
2022-11-27T21:04:05.506Z,84.66
2022-11-27T21:06:33.729Z,84.81
2022-11-27T21:09:04.631Z,84.80
2022-11-27T21:11:33.399Z,84.70
2022-11-27T21:14:07.750Z,84.54
2022-11-27T21:16:38.537Z,84.33
2022-11-27T21:19:13.103Z,84.62
2022-11-27T21:21:40.808Z,84.58
2022-11-27T21:24:08.869Z,84.60
2022-11-27T21:26:36.663Z,84.36
2022-11-27T21:29:05.184Z,84.40
2022-11-27T21:31:37.292Z,84.49
2022-11-27T21:34:07.617Z,85.15
2022-11-27T21:36:37.884Z,85.21
2022-11-27T21:39:09.321Z,85.73
2022-11-27T21:41:37.698Z,85.81
2022-11-27T21:44:06.813Z,85.85
2022-11-27T21:46:34.801Z,85.83
2022-11-27T21:49:02.917Z,85.77
2022-11-27T21:51:31.091Z,85.96
2022-11-27T21:54:00.036Z,85.98
2022-11-27T21:56:29.863Z,85.91
2022-11-27T21:58:57.863Z,86.04
2022-11-27T22:01:26.388Z,85.90
2022-11-27T22:03:55.754Z,85.94
2022-11-27T22:06:25.803Z,85.74
2022-11-27T22:08:57.447Z,85.75
2022-11-27T22:11:31.899Z,85.54
2022-11-27T22:14:02.597Z,85.82
2022-11-27T22:16:32.440Z,85.52
2022-11-27T22:19:01.473Z,85.48
2022-11-27T22:21:31.184Z,85.52
2022-11-27T22:23:59.713Z,85.58
2022-11-27T22:26:27.631Z,85.73
2022-11-27T22:28:55.425Z,86.06
2022-11-27T22:31:30.820Z,86.09
2022-11-27T22:33:59.012Z,86.41
2022-11-27T22:36:32.305Z,86.20
2022-11-27T22:39:02.399Z,86.33
2022-11-27T22:41:32.228Z,86.63
2022-11-27T22:44:01.421Z,86.47
2022-11-27T22:46:34.535Z,86.51
2022-11-27T22:49:04.906Z,86.40
2022-11-27T22:51:35.533Z,86.24
2022-11-27T22:54:04.674Z,86.32
2022-11-27T22:56:34.842Z,86.46
2022-11-27T22:59:31.239Z,86.38
2022-11-27T23:01:51.218Z,86.25
2022-11-27T23:04:18.888Z,86.68
2022-11-27T23:06:49.380Z,86.47
2022-11-27T23:09:19.131Z,86.40
2022-11-27T23:11:47.318Z,86.24
2022-11-27T23:14:14.971Z,86.22
2022-11-27T23:16:42.961Z,86.21
2022-11-27T23:19:11.551Z,86.27
2022-11-27T23:21:40.705Z,86.78
2022-11-27T23:24:11.849Z,86.67
2022-11-27T23:26:39.587Z,86.94
2022-11-27T23:29:07.352Z,87.08
2022-11-27T23:31:36.363Z,87.28
2022-11-27T23:34:08.364Z,87.06
2022-11-27T23:36:36.917Z,86.99
2022-11-27T23:39:06.922Z,86.93
2022-11-27T23:41:34.928Z,87.12
2022-11-27T23:44:03.196Z,87.08
2022-11-27T23:46:31.697Z,87.38
2022-11-27T23:49:01.101Z,87.65
2022-11-27T23:51:32.162Z,87.99
2022-11-27T23:54:01.141Z,87.86
2022-11-27T23:56:32.222Z,87.79
2022-11-27T23:59:00.430Z,88.20
